createdAt,value
2018-05-21T00:00:44.862Z,1.83
2018-05-21T00:03:11.391Z,1.77
2018-05-21T00:05:37.737Z,3.30
2018-05-21T00:08:04.179Z,7.87
2018-05-21T00:10:30.717Z,3.90
2018-05-21T00:12:57.871Z,2.20
2018-05-21T00:15:24.192Z,1.90
2018-05-21T00:17:51.104Z,5.23
2018-05-21T00:20:18.425Z,2.93
2018-05-21T00:22:45.308Z,2.20
2018-05-21T00:25:12.523Z,2.87
2018-05-21T00:27:39.617Z,5.03
2018-05-21T00:30:06.695Z,2.63
2018-05-21T00:35:29.859Z,4.70
2018-05-21T00:37:56.194Z,6.67
2018-05-21T00:40:23.285Z,6.47
2018-05-21T00:42:50.379Z,3.10
2018-05-21T00:45:16.723Z,3.10
2018-05-21T00:47:43.186Z,5.00
2018-05-21T00:50:09.541Z,7.13
2018-05-21T00:52:35.889Z,5.87
2018-05-21T00:55:14.474Z,3.87
2018-05-21T00:57:40.803Z,7.67
2018-05-21T01:00:07.194Z,5.03
2018-05-21T01:02:34.451Z,4.73
2018-05-21T01:05:01.549Z,3.17
2018-05-21T01:07:27.981Z,6.17
2018-05-21T01:09:54.599Z,4.23
2018-05-21T01:12:20.884Z,3.20
2018-05-21T01:14:47.345Z,3.60
2018-05-21T01:17:14.438Z,4.23
2018-05-21T01:19:40.850Z,3.60
2018-05-21T01:22:07.208Z,5.00
2018-05-21T01:24:33.634Z,8.23
2018-05-21T01:27:00.176Z,6.90
2018-05-21T01:29:26.529Z,2.63
2018-05-21T01:31:52.858Z,3.40
2018-05-21T01:34:19.310Z,3.87
2018-05-21T01:36:45.691Z,4.90
2018-05-21T01:39:12.004Z,3.23
2018-05-21T01:41:39.040Z,6.50
2018-05-21T01:44:06.106Z,4.00
2018-05-21T01:46:32.875Z,3.93
2018-05-21T01:48:59.185Z,4.07
2018-05-21T01:51:25.571Z,4.40
2018-05-21T01:53:52.456Z,2.47
2018-05-21T01:56:18.791Z,4.13
2018-05-21T01:58:45.136Z,4.00
2018-05-21T02:01:12.315Z,4.03
2018-05-21T02:03:38.780Z,4.70
2018-05-21T02:06:05.897Z,5.43
2018-05-21T02:08:32.377Z,3.03
2018-05-21T02:10:58.893Z,8.80
2018-05-21T02:13:25.344Z,3.73
2018-05-21T02:15:51.764Z,5.03
2018-05-21T02:18:18.096Z,4.40
2018-05-21T02:20:44.504Z,4.40
2018-05-21T02:23:10.945Z,3.87
2018-05-21T02:25:38.093Z,2.87
2018-05-21T02:28:04.437Z,5.10
2018-05-21T02:30:30.760Z,10.27
2018-05-21T02:32:57.073Z,3.93
2018-05-21T02:35:23.444Z,4.60
2018-05-21T02:37:50.582Z,6.10
2018-05-21T02:40:16.914Z,4.00
2018-05-21T02:42:43.302Z,4.97
2018-05-21T02:45:09.692Z,4.53
2018-05-21T02:47:36.197Z,4.23
2018-05-21T02:50:02.549Z,4.57
2018-05-21T02:52:29.038Z,5.50
2018-05-21T02:54:55.606Z,7.80
2018-05-21T02:57:22.242Z,7.83
2018-05-21T02:59:48.698Z,3.97
2018-05-21T03:02:15.802Z,4.17
2018-05-21T03:04:42.165Z,4.83
2018-05-21T03:07:08.538Z,3.53
2018-05-21T03:09:35.617Z,5.60
2018-05-21T03:12:01.990Z,5.37
2018-05-21T03:14:29.122Z,6.93
2018-05-21T03:16:55.447Z,3.53
2018-05-21T03:19:21.786Z,6.83
2018-05-21T03:21:48.145Z,5.10
2018-05-21T03:24:14.524Z,6.30
2018-05-21T03:26:41.612Z,4.47
2018-05-21T03:29:08.007Z,9.13
2018-05-21T03:31:34.468Z,3.37
2018-05-21T03:34:01.625Z,5.13
2018-05-21T03:36:28.818Z,3.40
2018-05-21T03:38:55.228Z,2.07
2018-05-21T03:41:22.346Z,1.93
2018-05-21T03:43:48.692Z,6.53
2018-05-21T03:46:15.078Z,2.53
2018-05-21T03:48:41.404Z,4.60
2018-05-21T03:51:07.873Z,2.30
2018-05-21T03:53:34.365Z,1.40
2018-05-21T03:56:00.735Z,2.40
2018-05-21T03:58:39.459Z,1.73
2018-05-21T04:01:18.071Z,5.17
2018-05-21T04:03:54.752Z,3.33
2018-05-21T04:06:21.083Z,6.37
2018-05-21T04:08:48.126Z,5.77
2018-05-21T04:11:14.468Z,5.67
2018-05-21T04:13:40.813Z,3.57
2018-05-21T04:16:07.174Z,2.43
2018-05-21T04:18:33.509Z,2.33
2018-05-21T04:20:59.885Z,4.10
2018-05-21T04:23:26.244Z,1.53
2018-05-21T04:25:52.609Z,2.80
2018-05-21T04:28:19.804Z,7.07
2018-05-21T04:30:46.201Z,3.17
2018-05-21T04:33:12.533Z,4.33
2018-05-21T04:35:39.620Z,3.07
2018-05-21T04:38:05.951Z,1.73
2018-05-21T04:40:32.318Z,3.47
2018-05-21T04:42:58.760Z,2.17
2018-05-21T04:45:25.097Z,1.73
2018-05-21T04:47:51.436Z,3.63
2018-05-21T04:50:17.757Z,2.60
2018-05-21T04:52:44.108Z,1.67
2018-05-21T04:55:10.509Z,2.47
2018-05-21T04:57:36.846Z,2.00
2018-05-21T05:00:03.239Z,4.03
2018-05-21T05:02:30.300Z,3.03
2018-05-21T05:04:56.721Z,5.53
2018-05-21T05:07:23.139Z,6.97
2018-05-21T05:09:49.497Z,6.60
2018-05-21T05:12:16.548Z,5.77
2018-05-21T05:14:42.884Z,5.70
2018-05-21T05:17:09.211Z,13.10
2018-05-21T05:19:35.544Z,7.90
2018-05-21T05:22:02.660Z,6.57
2018-05-21T05:24:29.750Z,6.23
2018-05-21T05:26:56.195Z,7.17
2018-05-21T05:29:22.558Z,6.77
2018-05-21T05:31:48.901Z,7.67
2018-05-21T05:34:15.251Z,9.63
2018-05-21T05:36:41.669Z,5.17
2018-05-21T05:39:08.037Z,5.73
2018-05-21T05:41:34.434Z,10.87
2018-05-21T05:44:00.847Z,10.77
2018-05-21T05:46:27.904Z,9.13
2018-05-21T05:48:54.342Z,6.17
2018-05-21T05:51:20.587Z,8.77
2018-05-21T05:53:46.852Z,5.80
2018-05-21T05:56:20.239Z,8.37
2018-05-21T05:58:47.307Z,7.53
2018-05-21T06:01:13.736Z,7.37
2018-05-21T06:03:40.199Z,6.37
2018-05-21T06:06:06.561Z,5.70
2018-05-21T06:08:33.935Z,7.53
2018-05-21T06:11:01.015Z,5.83
2018-05-21T06:13:28.114Z,6.23
2018-05-21T06:15:54.481Z,7.70
2018-05-21T06:18:20.831Z,7.33
2018-05-21T06:20:47.567Z,7.37
2018-05-21T06:23:13.888Z,8.23
2018-05-21T06:25:41.041Z,11.10
2018-05-21T06:28:08.132Z,6.53
2018-05-21T06:30:34.532Z,5.63
2018-05-21T06:33:00.964Z,7.63
2018-05-21T06:35:27.288Z,7.00
2018-05-21T06:37:53.672Z,6.47
2018-05-21T06:40:20.043Z,6.43
2018-05-21T06:42:47.093Z,6.47
2018-05-21T06:45:13.490Z,6.20
2018-05-21T06:47:39.877Z,8.97
2018-05-21T06:50:06.301Z,6.33
2018-05-21T06:52:44.432Z,6.10
2018-05-21T06:55:10.807Z,6.53
2018-05-21T06:57:37.195Z,6.43
2018-05-21T07:00:03.588Z,5.27
2018-05-21T07:02:30.644Z,7.43
2018-05-21T07:04:57.766Z,5.80
2018-05-21T07:07:24.108Z,6.03
2018-05-21T07:09:51.219Z,4.83
2018-05-21T07:12:17.591Z,5.60
2018-05-21T07:14:43.970Z,7.20
2018-05-21T07:17:11.224Z,6.73
2018-05-21T07:19:37.597Z,6.07
2018-05-21T07:22:05.070Z,8.43
2018-05-21T07:24:31.472Z,6.57
2018-05-21T07:26:57.829Z,8.60
2018-05-21T07:29:24.199Z,5.00
2018-05-21T07:31:50.544Z,6.27
2018-05-21T07:34:16.881Z,8.47
2018-05-21T07:36:46.370Z,7.70
2018-05-21T07:39:12.725Z,6.77
2018-05-21T07:41:39.065Z,5.70
2018-05-21T07:44:05.426Z,7.33
2018-05-21T07:46:31.806Z,8.10
2018-05-21T07:48:58.193Z,6.63
2018-05-21T07:51:25.452Z,5.63
2018-05-21T07:53:51.761Z,5.60
2018-05-21T07:56:18.144Z,9.57
2018-05-21T07:58:44.495Z,10.40
2018-05-21T08:01:10.839Z,10.73
2018-05-21T08:03:37.223Z,9.80
2018-05-21T08:06:05.512Z,9.53
2018-05-21T08:08:31.873Z,6.23
2018-05-21T08:10:58.235Z,6.00
2018-05-21T08:13:24.604Z,8.23
2018-05-21T08:15:50.975Z,7.83
2018-05-21T08:18:17.301Z,6.70
2018-05-21T08:20:45.428Z,5.17
2018-05-21T08:23:12.516Z,6.30
2018-05-21T08:25:38.900Z,4.73
2018-05-21T08:28:05.321Z,7.33
2018-05-21T08:30:31.689Z,6.83
2018-05-21T08:33:02.110Z,8.97
2018-05-21T08:35:28.513Z,4.73
2018-05-21T08:37:55.645Z,8.10
2018-05-21T08:40:22.021Z,7.40
2018-05-21T08:42:48.436Z,9.60
2018-05-21T08:45:14.759Z,5.73
2018-05-21T08:47:41.114Z,5.83
2018-05-21T08:50:08.212Z,7.30
2018-05-21T08:52:34.588Z,6.37
2018-05-21T08:55:01.667Z,5.43
2018-05-21T08:57:28.049Z,4.50
2018-05-21T08:59:54.484Z,5.17
2018-05-21T09:02:20.868Z,5.17
2018-05-21T09:04:47.253Z,5.40
2018-05-21T09:07:14.392Z,6.13
2018-05-21T09:09:40.732Z,6.67
2018-05-21T09:12:07.893Z,7.73
2018-05-21T09:14:42.012Z,4.77
2018-05-21T09:17:09.112Z,6.63
2018-05-21T09:19:35.567Z,7.00
2018-05-21T09:22:01.944Z,5.17
2018-05-21T09:24:28.377Z,4.80
2018-05-21T09:26:55.014Z,7.13
2018-05-21T09:29:30.450Z,6.63
2018-05-21T09:31:57.620Z,6.27
2018-05-21T09:34:24.039Z,6.30
2018-05-21T09:36:50.487Z,5.63
2018-05-21T09:39:16.918Z,7.90
2018-05-21T09:41:43.324Z,6.40
2018-05-21T09:44:09.704Z,5.40
2018-05-21T09:46:36.118Z,5.27
2018-05-21T09:49:02.464Z,6.30
2018-05-21T09:51:28.851Z,4.93
2018-05-21T09:53:55.242Z,4.60
2018-05-21T09:56:21.763Z,5.13
2018-05-21T09:58:48.308Z,4.50
2018-05-21T10:01:14.765Z,6.73
2018-05-21T10:03:41.225Z,8.20
2018-05-21T10:06:07.672Z,4.80
2018-05-21T10:08:34.099Z,6.90
2018-05-21T10:11:01.518Z,5.63
2018-05-21T10:13:27.892Z,5.73
2018-05-21T10:15:54.239Z,5.03
2018-05-21T10:18:20.621Z,5.37
2018-05-21T10:20:47.149Z,7.33
2018-05-21T10:23:18.496Z,6.10
2018-05-21T10:25:44.888Z,6.17
2018-05-21T10:28:11.263Z,4.20
2018-05-21T10:30:37.596Z,5.13
2018-05-21T10:33:04.736Z,6.67
2018-05-21T10:35:37.080Z,4.17
2018-05-21T10:38:03.511Z,4.93
2018-05-21T10:40:29.905Z,5.53
2018-05-21T10:42:57.006Z,4.07
2018-05-21T10:45:23.376Z,5.23
2018-05-21T10:47:49.815Z,7.20
2018-05-21T10:50:16.216Z,5.27
2018-05-21T10:52:42.579Z,5.37
2018-05-21T10:55:08.976Z,3.63
2018-05-21T10:57:35.432Z,4.33
2018-05-21T11:00:01.804Z,4.40
2018-05-21T11:02:28.185Z,3.47
2018-05-21T11:04:54.560Z,7.57
2018-05-21T11:07:22.328Z,5.83
2018-05-21T11:09:48.781Z,5.20
2018-05-21T11:12:15.230Z,5.40
2018-05-21T11:14:41.741Z,5.60
2018-05-21T11:17:08.239Z,5.63
2018-05-21T11:19:34.576Z,4.23
2018-05-21T11:22:01.695Z,4.10
2018-05-21T11:24:28.099Z,6.90
2018-05-21T11:26:54.489Z,4.63
2018-05-21T11:29:20.874Z,4.40
2018-05-21T11:31:59.551Z,6.30
2018-05-21T11:34:25.869Z,6.07
2018-05-21T11:36:52.231Z,3.73
2018-05-21T11:39:19.344Z,5.13
2018-05-21T11:41:45.716Z,3.63
2018-05-21T11:44:12.288Z,4.50
2018-05-21T11:46:38.888Z,6.03
2018-05-21T11:49:05.340Z,4.27
2018-05-21T11:51:31.706Z,4.93
2018-05-21T11:54:00.097Z,3.73
2018-05-21T11:56:26.488Z,5.37
2018-05-21T11:58:52.851Z,3.60
2018-05-21T12:01:19.326Z,4.43
2018-05-21T12:03:45.881Z,6.20
2018-05-21T12:06:12.259Z,5.83
2018-05-21T12:08:38.680Z,3.90
2018-05-21T12:11:05.040Z,5.70
2018-05-21T12:13:31.505Z,5.67
2018-05-21T12:15:58.892Z,4.17
2018-05-21T12:18:25.228Z,3.50
2018-05-21T12:20:51.604Z,5.07
2018-05-21T12:23:17.956Z,3.57
2018-05-21T12:25:44.304Z,5.50
2018-05-21T12:28:10.723Z,3.60
2018-05-21T12:30:37.078Z,6.97
2018-05-21T12:33:03.395Z,5.53
2018-05-21T12:35:29.820Z,4.23
2018-05-21T12:37:56.221Z,3.70
2018-05-21T12:40:23.328Z,3.70
2018-05-21T12:42:49.805Z,3.90
2018-05-21T12:45:16.162Z,4.10
2018-05-21T12:47:44.875Z,3.97
2018-05-21T12:50:11.244Z,6.87
2018-05-21T12:52:38.041Z,4.67
2018-05-21T12:55:04.780Z,3.80
2018-05-21T12:57:31.336Z,3.40
2018-05-21T12:59:57.885Z,3.67
2018-05-21T13:02:24.501Z,2.90
2018-05-21T13:04:52.057Z,6.20
2018-05-21T13:07:18.384Z,5.47
2018-05-21T13:09:44.733Z,5.27
2018-05-21T13:12:12.897Z,4.00
2018-05-21T13:14:39.327Z,3.70
2018-05-21T13:17:05.649Z,3.77
2018-05-21T13:19:32.058Z,5.40
2018-05-21T13:21:59.381Z,6.37
2018-05-21T13:24:26.155Z,3.33
2018-05-21T13:26:53.651Z,4.10
2018-05-21T13:29:20.054Z,2.97
2018-05-21T13:31:46.549Z,3.50
2018-05-21T13:34:13.005Z,3.05
2018-05-21T13:36:40.112Z,2.83
2018-05-21T13:39:06.676Z,6.97
2018-05-21T13:41:33.285Z,4.50
2018-05-21T13:43:59.682Z,2.60
2018-05-21T13:46:26.311Z,3.67
2018-05-21T13:48:52.770Z,3.05
2018-05-21T13:51:19.108Z,3.30
2018-05-21T13:53:45.536Z,3.00
2018-05-21T13:56:11.993Z,2.33
2018-05-21T13:58:38.384Z,2.40
2018-05-21T14:01:05.620Z,3.83
2018-05-21T14:03:32.763Z,2.97
2018-05-21T14:06:00.703Z,2.63
2018-05-21T14:08:27.588Z,4.73
2018-05-21T14:10:54.040Z,3.30
2018-05-21T14:13:20.508Z,3.07
2018-05-21T14:15:46.909Z,5.80
2018-05-21T14:18:13.300Z,2.50
2018-05-21T14:20:39.717Z,3.67
2018-05-21T14:23:06.121Z,2.80
2018-05-21T14:25:32.683Z,7.27
2018-05-21T14:28:00.055Z,2.43
2018-05-21T14:30:30.420Z,2.57
2018-05-21T14:32:57.806Z,3.57
2018-05-21T14:35:24.281Z,3.57
2018-05-21T14:37:51.414Z,3.70
2018-05-21T14:40:17.886Z,2.50
2018-05-21T14:42:45.019Z,2.80
2018-05-21T14:45:12.116Z,3.13
2018-05-21T14:47:38.512Z,5.43
2018-05-21T14:50:05.678Z,2.63
2018-05-21T14:52:32.002Z,2.53
2018-05-21T14:54:58.490Z,4.90
2018-05-21T14:57:24.809Z,2.97
2018-05-21T14:59:51.205Z,2.87
2018-05-21T15:02:17.574Z,2.50
2018-05-21T15:04:44.005Z,3.47
2018-05-21T15:07:10.393Z,3.17
2018-05-21T15:09:36.724Z,3.60
2018-05-21T15:12:03.873Z,2.77
2018-05-21T15:14:30.955Z,3.80
2018-05-21T15:16:57.340Z,2.17
2018-05-21T15:19:24.415Z,3.37
2018-05-21T15:22:02.016Z,3.80
2018-05-21T15:24:28.365Z,2.80
2018-05-21T15:26:54.748Z,1.90
2018-05-21T15:29:21.097Z,3.77
2018-05-21T15:31:47.429Z,2.20
2018-05-21T15:34:14.389Z,2.50
2018-05-21T15:36:46.081Z,2.47
2018-05-21T15:39:12.417Z,1.70
2018-05-21T15:41:38.868Z,2.70
2018-05-21T15:44:05.220Z,2.43
2018-05-21T15:46:31.621Z,2.60
2018-05-21T15:48:57.994Z,2.60
2018-05-21T15:51:29.208Z,3.03
2018-05-21T15:53:55.555Z,3.03
2018-05-21T15:56:22.663Z,4.20
2018-05-21T15:58:49.039Z,2.70
2018-05-21T16:01:16.118Z,2.43
2018-05-21T16:03:51.644Z,3.93
2018-05-21T16:06:18.005Z,3.77
2018-05-21T16:08:44.404Z,3.67
2018-05-21T16:11:11.544Z,2.50
2018-05-21T16:13:38.634Z,7.20
2018-05-21T16:16:05.073Z,2.77
2018-05-21T16:18:31.454Z,3.33
2018-05-21T16:20:58.602Z,3.37
2018-05-21T16:23:24.988Z,2.70
2018-05-21T16:25:51.330Z,4.07
2018-05-21T16:28:17.664Z,3.30
2018-05-21T16:30:44.480Z,2.90
2018-05-21T16:33:10.804Z,3.27
2018-05-21T16:35:37.265Z,3.10
2018-05-21T16:38:03.631Z,6.00
2018-05-21T16:40:30.781Z,3.10
2018-05-21T16:42:57.937Z,3.13
2018-05-21T16:45:25.101Z,2.77
2018-05-21T16:47:51.617Z,3.63
2018-05-21T16:50:17.948Z,5.00
2018-05-21T16:52:44.504Z,2.60
2018-05-21T16:55:11.623Z,3.30
2018-05-21T16:57:38.768Z,3.57
2018-05-21T17:00:05.211Z,4.53
2018-05-21T17:02:31.476Z,2.50
2018-05-21T17:04:57.872Z,3.37
2018-05-21T17:07:24.328Z,5.20
2018-05-21T17:09:50.619Z,3.10
2018-05-21T17:12:16.988Z,3.13
2018-05-21T17:14:43.375Z,3.23
2018-05-21T17:17:09.846Z,3.13
2018-05-21T17:19:36.969Z,2.70
2018-05-21T17:22:03.438Z,3.30
2018-05-21T17:24:29.866Z,3.00
2018-05-21T17:26:56.987Z,2.70
2018-05-21T17:29:24.188Z,2.40
2018-05-21T17:31:52.009Z,2.60
2018-05-21T17:34:18.385Z,2.00
2018-05-21T17:36:45.403Z,2.93
2018-05-21T17:39:11.746Z,2.93
2018-05-21T17:41:38.103Z,3.00
2018-05-21T17:44:04.538Z,2.80
2018-05-21T17:46:30.885Z,2.80
2018-05-21T17:48:57.288Z,2.10
2018-05-21T17:51:24.365Z,3.13
2018-05-21T17:53:50.719Z,4.50
2018-05-21T17:56:17.061Z,4.97
2018-05-21T17:58:43.420Z,2.77
2018-05-21T18:01:11.116Z,2.50
2018-05-21T18:03:37.498Z,3.57
2018-05-21T18:06:03.832Z,3.00
2018-05-21T18:08:30.255Z,2.87
2018-05-21T18:10:56.588Z,2.27
2018-05-21T18:13:22.943Z,2.40
2018-05-21T18:15:49.308Z,2.70
2018-05-21T18:18:15.681Z,2.70
2018-05-21T18:20:42.060Z,3.23
2018-05-21T18:23:09.412Z,3.90
2018-05-21T18:25:35.780Z,2.60
2018-05-21T18:28:02.139Z,3.50
2018-05-21T18:30:28.792Z,4.40
2018-05-21T18:32:55.180Z,3.27
2018-05-21T18:35:21.574Z,3.23
2018-05-21T18:37:47.952Z,3.90
2018-05-21T18:40:14.440Z,4.33
2018-05-21T18:42:41.587Z,4.17
2018-05-21T18:45:07.916Z,8.13
2018-05-21T18:47:34.268Z,13.73
2018-05-21T18:50:00.656Z,9.30
2018-05-21T18:52:26.968Z,9.67
2018-05-21T18:54:53.315Z,10.13
2018-05-21T18:57:19.643Z,11.00
2018-05-21T18:59:46.001Z,7.67
2018-05-21T19:02:12.365Z,10.63
2018-05-21T19:04:38.734Z,10.87
2018-05-21T19:07:05.104Z,8.53
2018-05-21T19:09:31.579Z,10.50
2018-05-21T19:11:58.043Z,11.10
2018-05-21T19:14:24.534Z,12.10
2018-05-21T19:16:50.949Z,10.83
2018-05-21T19:19:18.107Z,6.60
2018-05-21T19:21:44.610Z,9.43
2018-05-21T19:24:11.020Z,7.20
2018-05-21T19:26:37.454Z,6.00
2018-05-21T19:29:04.030Z,5.10
2018-05-21T19:31:31.269Z,5.97
2018-05-21T19:33:58.417Z,5.30
2018-05-21T19:36:24.846Z,3.60
2018-05-21T19:38:51.271Z,4.37
2018-05-21T19:41:17.781Z,3.83
2018-05-21T19:43:44.145Z,4.83
2018-05-21T19:46:10.545Z,3.60
2018-05-21T19:48:37.020Z,4.10
2018-05-21T19:51:03.506Z,5.00
2018-05-21T19:53:29.960Z,4.17
2018-05-21T19:55:57.115Z,4.93
2018-05-21T19:58:23.628Z,5.07
2018-05-21T20:00:50.116Z,5.40
2018-05-21T20:03:16.602Z,3.53
2018-05-21T20:05:43.157Z,4.23
2018-05-21T20:08:09.725Z,4.00
2018-05-21T20:10:36.209Z,4.40
2018-05-21T20:13:02.664Z,3.77
2018-05-21T20:15:29.202Z,8.67
2018-05-21T20:17:56.383Z,8.10
2018-05-21T20:20:35.076Z,5.03
2018-05-21T20:23:02.131Z,4.57
2018-05-21T20:25:28.928Z,3.40
2018-05-21T20:27:55.367Z,4.50
2018-05-21T20:30:21.756Z,5.37
2018-05-21T20:32:48.233Z,4.77
2018-05-21T20:35:14.756Z,5.03
2018-05-21T20:37:41.326Z,5.43
2018-05-21T20:40:07.817Z,6.23
2018-05-21T20:42:34.241Z,4.90
2018-05-21T20:45:00.628Z,3.20
2018-05-21T20:47:26.984Z,6.30
2018-05-21T20:49:53.336Z,2.23
2018-05-21T20:52:19.680Z,2.40
2018-05-21T20:54:46.308Z,2.23
2018-05-21T20:57:12.676Z,1.90
2018-05-21T20:59:39.015Z,2.00
2018-05-21T21:02:05.400Z,1.70
2018-05-21T21:04:32.497Z,2.47
2018-05-21T21:06:58.861Z,2.40
2018-05-21T21:09:25.219Z,2.37
2018-05-21T21:11:51.624Z,2.37
2018-05-21T21:14:18.725Z,2.50
2018-05-21T21:16:45.119Z,3.80
2018-05-21T21:19:11.553Z,2.40
2018-05-21T21:21:38.636Z,2.67
2018-05-21T21:24:05.045Z,2.87
2018-05-21T21:26:31.448Z,2.77
2018-05-21T21:28:58.520Z,3.20
2018-05-21T21:31:25.601Z,4.10
2018-05-21T21:33:51.935Z,4.53
2018-05-21T21:36:18.394Z,2.27
2018-05-21T21:38:44.781Z,2.80
2018-05-21T21:41:11.142Z,3.80
2018-05-21T21:43:37.550Z,3.10
2018-05-21T21:46:03.950Z,2.00
2018-05-21T21:48:31.047Z,1.70
2018-05-21T21:50:57.440Z,1.57
2018-05-21T21:53:24.584Z,2.40
2018-05-21T21:55:50.969Z,2.20
2018-05-21T21:58:17.316Z,1.90
2018-05-21T22:00:43.740Z,2.17
2018-05-21T22:03:10.063Z,2.23
2018-05-21T22:05:36.449Z,2.90
2018-05-21T22:08:03.580Z,5.23
2018-05-21T22:10:29.955Z,2.80
2018-05-21T22:12:56.344Z,3.43
2018-05-21T22:15:22.851Z,2.70
2018-05-21T22:17:49.204Z,5.70
2018-05-21T22:20:15.566Z,3.23
2018-05-21T22:22:42.723Z,3.63
2018-05-21T22:25:09.140Z,2.93
2018-05-21T22:27:36.276Z,3.17
2018-05-21T22:30:02.720Z,3.17
2018-05-21T22:32:29.831Z,1.60
2018-05-21T22:34:56.220Z,2.00
2018-05-21T22:37:23.292Z,3.20
2018-05-21T22:39:49.636Z,1.80
2018-05-21T22:42:16.040Z,2.30
2018-05-21T22:44:42.406Z,1.80
2018-05-21T22:47:08.733Z,3.07
2018-05-21T22:49:35.097Z,2.50
2018-05-21T22:52:02.078Z,2.57
2018-05-21T22:54:35.267Z,1.70
2018-05-21T22:57:01.668Z,3.60
2018-05-21T22:59:28.031Z,2.37
2018-05-21T23:01:54.423Z,3.30
2018-05-21T23:04:20.768Z,2.87
2018-05-21T23:06:47.807Z,2.43
2018-05-21T23:09:14.131Z,1.57
2018-05-21T23:11:40.522Z,1.60
2018-05-21T23:14:06.872Z,1.60
2018-05-21T23:16:33.968Z,1.57
2018-05-21T23:19:01.086Z,1.83
2018-05-21T23:21:27.412Z,1.97
2018-05-21T23:23:53.732Z,2.57
2018-05-21T23:26:20.127Z,3.10
2018-05-21T23:28:47.885Z,2.20
2018-05-21T23:31:14.312Z,2.63
2018-05-21T23:33:41.433Z,1.73
2018-05-21T23:36:08.196Z,2.60
2018-05-21T23:38:35.256Z,2.70
2018-05-21T23:41:02.393Z,1.73
2018-05-21T23:43:28.721Z,2.17
2018-05-21T23:45:55.838Z,2.20
2018-05-21T23:48:22.228Z,2.90
2018-05-21T23:50:49.352Z,2.67
2018-05-21T23:53:15.700Z,2.13
2018-05-21T23:55:42.807Z,2.20
2018-05-21T23:58:09.134Z,2.83
